sensor_id;sensor_type;location;lat;lon;timestamp;temperature;humidity
7588;DHT22;3835;48.850;8.938;2022-07-06T00:00:12;17.00;96.70
7588;DHT22;3835;48.850;8.938;2022-07-06T00:02:40;17.00;96.70
7588;DHT22;3835;48.850;8.938;2022-07-06T00:05:07;17.00;96.60
7588;DHT22;3835;48.850;8.938;2022-07-06T00:07:34;16.90;96.70
7588;DHT22;3835;48.850;8.938;2022-07-06T00:10:01;16.90;96.80
7588;DHT22;3835;48.850;8.938;2022-07-06T00:12:29;16.90;96.90
7588;DHT22;3835;48.850;8.938;2022-07-06T00:14:56;16.90;96.90
7588;DHT22;3835;48.850;8.938;2022-07-06T00:17:23;16.80;97.00
7588;DHT22;3835;48.850;8.938;2022-07-06T00:19:50;16.70;97.30
7588;DHT22;3835;48.850;8.938;2022-07-06T00:22:17;16.60;97.20
7588;DHT22;3835;48.850;8.938;2022-07-06T00:24:43;16.60;97.50
7588;DHT22;3835;48.850;8.938;2022-07-06T00:27:10;16.60;97.60
7588;DHT22;3835;48.850;8.938;2022-07-06T00:29:38;16.50;97.50
7588;DHT22;3835;48.850;8.938;2022-07-06T00:32:09;16.50;97.80
7588;DHT22;3835;48.850;8.938;2022-07-06T00:34:36;16.40;97.50
7588;DHT22;3835;48.850;8.938;2022-07-06T00:37:05;16.40;97.60
7588;DHT22;3835;48.850;8.938;2022-07-06T00:39:31;16.40;97.90
7588;DHT22;3835;48.850;8.938;2022-07-06T00:41:58;16.30;97.80
7588;DHT22;3835;48.850;8.938;2022-07-06T00:44:25;16.30;97.80
7588;DHT22;3835;48.850;8.938;2022-07-06T00:46:53;16.20;97.90
7588;DHT22;3835;48.850;8.938;2022-07-06T00:49:20;16.20;98.00
7588;DHT22;3835;48.850;8.938;2022-07-06T00:52:06;16.20;97.80
7588;DHT22;3835;48.850;8.938;2022-07-06T00:54:34;16.20;97.90
7588;DHT22;3835;48.850;8.938;2022-07-06T00:57:02;16.20;97.80
7588;DHT22;3835;48.850;8.938;2022-07-06T00:59:30;16.10;97.80
7588;DHT22;3835;48.850;8.938;2022-07-06T01:08:42;16.30;97.20
7588;DHT22;3835;48.850;8.938;2022-07-06T01:11:09;16.30;97.30
7588;DHT22;3835;48.850;8.938;2022-07-06T01:13:37;16.30;97.20
7588;DHT22;3835;48.850;8.938;2022-07-06T01:18:57;16.30;97.40
7588;DHT22;3835;48.850;8.938;2022-07-06T01:21:33;16.20;97.60
7588;DHT22;3835;48.850;8.938;2022-07-06T01:24:00;16.20;97.60
7588;DHT22;3835;48.850;8.938;2022-07-06T01:26:27;16.20;97.80
7588;DHT22;3835;48.850;8.938;2022-07-06T01:28:54;16.10;98.00
7588;DHT22;3835;48.850;8.938;2022-07-06T01:31:22;16.00;98.10
7588;DHT22;3835;48.850;8.938;2022-07-06T01:33:50;16.00;98.30
7588;DHT22;3835;48.850;8.938;2022-07-06T01:36:17;15.90;98.40
7588;DHT22;3835;48.850;8.938;2022-07-06T01:38:46;15.80;98.60
7588;DHT22;3835;48.850;8.938;2022-07-06T01:41:14;15.80;98.70
7588;DHT22;3835;48.850;8.938;2022-07-06T01:43:41;15.70;98.80
7588;DHT22;3835;48.850;8.938;2022-07-06T01:46:08;15.70;99.10
7588;DHT22;3835;48.850;8.938;2022-07-06T01:48:35;15.60;99.30
7588;DHT22;3835;48.850;8.938;2022-07-06T01:51:03;15.50;99.60
7588;DHT22;3835;48.850;8.938;2022-07-06T01:53:30;15.60;99.80
7588;DHT22;3835;48.850;8.938;2022-07-06T01:55:58;15.60;99.80
7588;DHT22;3835;48.850;8.938;2022-07-06T01:58:25;15.50;99.90
7588;DHT22;3835;48.850;8.938;2022-07-06T02:00:52;15.50;99.90
7588;DHT22;3835;48.850;8.938;2022-07-06T02:03:18;15.40;99.90
7588;DHT22;3835;48.850;8.938;2022-07-06T02:05:45;15.40;99.90
7588;DHT22;3835;48.850;8.938;2022-07-06T02:08:12;15.40;99.90
7588;DHT22;3835;48.850;8.938;2022-07-06T02:10:39;15.40;99.90
7588;DHT22;3835;48.850;8.938;2022-07-06T02:13:07;15.30;99.90
7588;DHT22;3835;48.850;8.938;2022-07-06T02:15:34;15.30;99.90
7588;DHT22;3835;48.850;8.938;2022-07-06T02:18:01;15.30;99.90
7588;DHT22;3835;48.850;8.938;2022-07-06T02:20:28;15.20;99.90
7588;DHT22;3835;48.850;8.938;2022-07-06T02:22:55;15.20;99.90
7588;DHT22;3835;48.850;8.938;2022-07-06T02:25:21;15.10;99.90
7588;DHT22;3835;48.850;8.938;2022-07-06T02:27:48;15.10;99.90
7588;DHT22;3835;48.850;8.938;2022-07-06T02:30:16;15.00;99.90
7588;DHT22;3835;48.850;8.938;2022-07-06T02:32:43;15.00;99.90
7588;DHT22;3835;48.850;8.938;2022-07-06T02:35:10;15.10;99.90
7588;DHT22;3835;48.850;8.938;2022-07-06T02:37:37;15.00;99.90
7588;DHT22;3835;48.850;8.938;2022-07-06T02:40:05;15.00;99.90
7588;DHT22;3835;48.850;8.938;2022-07-06T02:42:32;14.90;99.90
7588;DHT22;3835;48.850;8.938;2022-07-06T02:44:59;14.90;99.90
7588;DHT22;3835;48.850;8.938;2022-07-06T02:47:27;14.90;99.90
7588;DHT22;3835;48.850;8.938;2022-07-06T02:49:54;14.80;99.90
7588;DHT22;3835;48.850;8.938;2022-07-06T02:52:21;14.70;99.90
7588;DHT22;3835;48.850;8.938;2022-07-06T02:54:48;14.60;99.90
7588;DHT22;3835;48.850;8.938;2022-07-06T02:57:15;14.60;99.90
7588;DHT22;3835;48.850;8.938;2022-07-06T02:59:42;14.50;99.90
7588;DHT22;3835;48.850;8.938;2022-07-06T03:02:09;14.50;99.90
7588;DHT22;3835;48.850;8.938;2022-07-06T03:04:38;14.50;99.90
7588;DHT22;3835;48.850;8.938;2022-07-06T03:07:04;14.40;99.90
7588;DHT22;3835;48.850;8.938;2022-07-06T03:09:31;14.40;99.90
7588;DHT22;3835;48.850;8.938;2022-07-06T03:11:58;14.30;99.90
7588;DHT22;3835;48.850;8.938;2022-07-06T03:14:25;14.30;99.90
7588;DHT22;3835;48.850;8.938;2022-07-06T03:16:52;14.20;99.90
7588;DHT22;3835;48.850;8.938;2022-07-06T03:19:19;14.20;99.90
7588;DHT22;3835;48.850;8.938;2022-07-06T03:21:47;14.20;99.90
7588;DHT22;3835;48.850;8.938;2022-07-06T03:24:14;14.20;99.90
7588;DHT22;3835;48.850;8.938;2022-07-06T03:26:41;14.20;99.90
7588;DHT22;3835;48.850;8.938;2022-07-06T03:29:08;14.20;99.90
7588;DHT22;3835;48.850;8.938;2022-07-06T03:31:35;14.20;99.90
7588;DHT22;3835;48.850;8.938;2022-07-06T03:34:02;14.20;99.90
7588;DHT22;3835;48.850;8.938;2022-07-06T03:36:28;14.20;99.90
7588;DHT22;3835;48.850;8.938;2022-07-06T03:38:57;14.20;99.90
7588;DHT22;3835;48.850;8.938;2022-07-06T03:41:23;14.20;99.90
7588;DHT22;3835;48.850;8.938;2022-07-06T03:43:50;14.20;99.90
7588;DHT22;3835;48.850;8.938;2022-07-06T03:46:17;14.20;99.90
7588;DHT22;3835;48.850;8.938;2022-07-06T03:48:44;14.30;99.90
7588;DHT22;3835;48.850;8.938;2022-07-06T03:51:11;14.30;99.90
7588;DHT22;3835;48.850;8.938;2022-07-06T03:53:38;14.30;99.90
7588;DHT22;3835;48.850;8.938;2022-07-06T03:56:06;14.30;99.90
7588;DHT22;3835;48.850;8.938;2022-07-06T03:58:50;14.40;99.90
7588;DHT22;3835;48.850;8.938;2022-07-06T04:01:17;14.40;99.90
7588;DHT22;3835;48.850;8.938;2022-07-06T04:03:44;14.50;99.90
7588;DHT22;3835;48.850;8.938;2022-07-06T04:06:11;14.60;99.90
7588;DHT22;3835;48.850;8.938;2022-07-06T04:08:38;14.70;99.90
7588;DHT22;3835;48.850;8.938;2022-07-06T04:11:06;14.70;99.90
7588;DHT22;3835;48.850;8.938;2022-07-06T04:13:33;14.80;99.90
7588;DHT22;3835;48.850;8.938;2022-07-06T04:16:00;14.90;99.90
7588;DHT22;3835;48.850;8.938;2022-07-06T04:18:27;15.00;99.90
7588;DHT22;3835;48.850;8.938;2022-07-06T04:20:54;15.00;99.90
7588;DHT22;3835;48.850;8.938;2022-07-06T04:23:22;15.10;99.90
7588;DHT22;3835;48.850;8.938;2022-07-06T04:25:49;15.10;99.90
7588;DHT22;3835;48.850;8.938;2022-07-06T04:28:17;15.10;99.90
7588;DHT22;3835;48.850;8.938;2022-07-06T04:30:44;15.00;99.90
7588;DHT22;3835;48.850;8.938;2022-07-06T04:33:11;15.10;99.90
7588;DHT22;3835;48.850;8.938;2022-07-06T04:35:38;15.20;99.90
7588;DHT22;3835;48.850;8.938;2022-07-06T04:38:05;15.20;99.90
7588;DHT22;3835;48.850;8.938;2022-07-06T04:40:31;15.20;99.90
7588;DHT22;3835;48.850;8.938;2022-07-06T04:42:58;15.20;99.90
7588;DHT22;3835;48.850;8.938;2022-07-06T04:45:27;15.20;99.90
7588;DHT22;3835;48.850;8.938;2022-07-06T04:47:54;15.20;99.90
7588;DHT22;3835;48.850;8.938;2022-07-06T04:50:21;15.30;99.90
7588;DHT22;3835;48.850;8.938;2022-07-06T04:52:47;15.40;99.90
7588;DHT22;3835;48.850;8.938;2022-07-06T04:55:14;15.30;99.90
7588;DHT22;3835;48.850;8.938;2022-07-06T04:57:41;15.40;99.90
7588;DHT22;3835;48.850;8.938;2022-07-06T05:00:09;15.50;99.90
7588;DHT22;3835;48.850;8.938;2022-07-06T05:02:37;15.50;99.90
7588;DHT22;3835;48.850;8.938;2022-07-06T05:05:05;15.60;99.90
7588;DHT22;3835;48.850;8.938;2022-07-06T05:07:32;15.60;99.90
7588;DHT22;3835;48.850;8.938;2022-07-06T05:09:59;15.50;99.90
7588;DHT22;3835;48.850;8.938;2022-07-06T05:12:26;15.60;99.90
7588;DHT22;3835;48.850;8.938;2022-07-06T05:14:53;15.70;99.90
7588;DHT22;3835;48.850;8.938;2022-07-06T05:17:20;15.80;99.90
7588;DHT22;3835;48.850;8.938;2022-07-06T05:19:48;15.90;99.90
7588;DHT22;3835;48.850;8.938;2022-07-06T05:22:15;16.00;99.90
7588;DHT22;3835;48.850;8.938;2022-07-06T05:24:41;16.30;99.90
7588;DHT22;3835;48.850;8.938;2022-07-06T05:27:08;16.50;99.90
7588;DHT22;3835;48.850;8.938;2022-07-06T05:29:35;16.80;99.90
7588;DHT22;3835;48.850;8.938;2022-07-06T05:32:02;16.90;99.90
7588;DHT22;3835;48.850;8.938;2022-07-06T05:34:29;17.60;99.90
7588;DHT22;3835;48.850;8.938;2022-07-06T05:36:57;18.20;99.90
7588;DHT22;3835;48.850;8.938;2022-07-06T05:39:24;19.50;99.90
7588;DHT22;3835;48.850;8.938;2022-07-06T05:41:51;19.80;99.90
7588;DHT22;3835;48.850;8.938;2022-07-06T05:44:18;20.60;99.90
7588;DHT22;3835;48.850;8.938;2022-07-06T05:46:45;20.10;99.90
7588;DHT22;3835;48.850;8.938;2022-07-06T05:49:11;19.60;99.90
7588;DHT22;3835;48.850;8.938;2022-07-06T05:51:57;19.50;99.90
7588;DHT22;3835;48.850;8.938;2022-07-06T05:54:24;19.30;99.90
7588;DHT22;3835;48.850;8.938;2022-07-06T05:56:51;19.30;99.90
7588;DHT22;3835;48.850;8.938;2022-07-06T05:59:17;19.20;99.90
7588;DHT22;3835;48.850;8.938;2022-07-06T06:01:44;19.30;99.90
7588;DHT22;3835;48.850;8.938;2022-07-06T06:04:11;18.80;99.90
7588;DHT22;3835;48.850;8.938;2022-07-06T06:06:38;18.40;99.90
7588;DHT22;3835;48.850;8.938;2022-07-06T06:09:06;17.70;99.90
7588;DHT22;3835;48.850;8.938;2022-07-06T06:11:33;17.50;99.90
7588;DHT22;3835;48.850;8.938;2022-07-06T06:14:00;17.40;99.90
7588;DHT22;3835;48.850;8.938;2022-07-06T06:16:26;17.20;99.90
7588;DHT22;3835;48.850;8.938;2022-07-06T06:18:53;17.30;99.90
7588;DHT22;3835;48.850;8.938;2022-07-06T06:21:20;17.40;99.90
7588;DHT22;3835;48.850;8.938;2022-07-06T06:23:47;17.50;99.90
7588;DHT22;3835;48.850;8.938;2022-07-06T06:26:15;17.50;99.90
7588;DHT22;3835;48.850;8.938;2022-07-06T06:28:42;17.40;99.90
7588;DHT22;3835;48.850;8.938;2022-07-06T06:31:08;17.60;99.90
7588;DHT22;3835;48.850;8.938;2022-07-06T06:33:35;17.50;99.90
7588;DHT22;3835;48.850;8.938;2022-07-06T06:36:02;17.50;99.90
7588;DHT22;3835;48.850;8.938;2022-07-06T06:38:29;17.10;99.90
7588;DHT22;3835;48.850;8.938;2022-07-06T06:40:56;16.90;99.90
7588;DHT22;3835;48.850;8.938;2022-07-06T06:43:25;16.80;99.90
7588;DHT22;3835;48.850;8.938;2022-07-06T06:45:52;17.10;99.90
7588;DHT22;3835;48.850;8.938;2022-07-06T06:48:19;17.20;99.90
7588;DHT22;3835;48.850;8.938;2022-07-06T06:50:46;17.20;99.90
7588;DHT22;3835;48.850;8.938;2022-07-06T06:53:13;17.70;99.90
7588;DHT22;3835;48.850;8.938;2022-07-06T06:55:40;18.20;99.90
7588;DHT22;3835;48.850;8.938;2022-07-06T06:58:06;17.70;99.90
7588;DHT22;3835;48.850;8.938;2022-07-06T07:00:35;18.00;99.90
7588;DHT22;3835;48.850;8.938;2022-07-06T07:03:02;18.30;99.90
7588;DHT22;3835;48.850;8.938;2022-07-06T07:05:28;18.00;99.90
7588;DHT22;3835;48.850;8.938;2022-07-06T07:07:55;17.80;99.90
7588;DHT22;3835;48.850;8.938;2022-07-06T07:10:24;17.90;99.90
7588;DHT22;3835;48.850;8.938;2022-07-06T07:12:51;18.20;99.90
7588;DHT22;3835;48.850;8.938;2022-07-06T07:15:19;18.10;99.90
7588;DHT22;3835;48.850;8.938;2022-07-06T07:17:47;18.40;99.90
7588;DHT22;3835;48.850;8.938;2022-07-06T07:20:13;18.20;99.90
7588;DHT22;3835;48.850;8.938;2022-07-06T07:22:40;18.30;99.90
7588;DHT22;3835;48.850;8.938;2022-07-06T07:25:07;18.20;99.90
7588;DHT22;3835;48.850;8.938;2022-07-06T07:27:34;18.50;99.90
7588;DHT22;3835;48.850;8.938;2022-07-06T07:30:02;18.50;99.90
7588;DHT22;3835;48.850;8.938;2022-07-06T07:32:29;18.00;99.90
7588;DHT22;3835;48.850;8.938;2022-07-06T07:34:57;17.80;99.90
7588;DHT22;3835;48.850;8.938;2022-07-06T07:37:24;17.90;99.90
7588;DHT22;3835;48.850;8.938;2022-07-06T07:39:51;18.20;99.90
7588;DHT22;3835;48.850;8.938;2022-07-06T07:42:17;18.00;99.90
7588;DHT22;3835;48.850;8.938;2022-07-06T07:44:44;18.10;99.90
7588;DHT22;3835;48.850;8.938;2022-07-06T07:47:11;18.00;99.90
7588;DHT22;3835;48.850;8.938;2022-07-06T07:49:38;18.10;99.90
7588;DHT22;3835;48.850;8.938;2022-07-06T07:52:06;18.20;99.90
7588;DHT22;3835;48.850;8.938;2022-07-06T07:54:33;18.20;99.90
7588;DHT22;3835;48.850;8.938;2022-07-06T07:57:00;18.40;99.90
7588;DHT22;3835;48.850;8.938;2022-07-06T07:59:27;18.60;99.90
7588;DHT22;3835;48.850;8.938;2022-07-06T08:01:54;18.70;99.90
7588;DHT22;3835;48.850;8.938;2022-07-06T08:04:21;18.70;99.90
7588;DHT22;3835;48.850;8.938;2022-07-06T08:06:48;18.80;99.90
7588;DHT22;3835;48.850;8.938;2022-07-06T08:09:16;18.80;99.90
7588;DHT22;3835;48.850;8.938;2022-07-06T08:11:43;18.80;99.90
7588;DHT22;3835;48.850;8.938;2022-07-06T08:14:10;18.70;99.90
7588;DHT22;3835;48.850;8.938;2022-07-06T08:16:39;18.80;99.90
7588;DHT22;3835;48.850;8.938;2022-07-06T08:19:06;18.70;99.90
7588;DHT22;3835;48.850;8.938;2022-07-06T08:21:33;18.60;99.90
7588;DHT22;3835;48.850;8.938;2022-07-06T08:24:00;18.70;99.90
7588;DHT22;3835;48.850;8.938;2022-07-06T08:26:28;18.80;99.90
7588;DHT22;3835;48.850;8.938;2022-07-06T08:28:56;19.00;99.90
7588;DHT22;3835;48.850;8.938;2022-07-06T08:31:22;19.10;99.90
7588;DHT22;3835;48.850;8.938;2022-07-06T08:33:49;19.20;99.90
7588;DHT22;3835;48.850;8.938;2022-07-06T08:36:18;19.30;99.90
7588;DHT22;3835;48.850;8.938;2022-07-06T08:38:45;19.60;99.90
7588;DHT22;3835;48.850;8.938;2022-07-06T08:41:14;19.50;99.90
7588;DHT22;3835;48.850;8.938;2022-07-06T08:43:43;19.60;99.90
7588;DHT22;3835;48.850;8.938;2022-07-06T08:46:13;19.50;99.90
7588;DHT22;3835;48.850;8.938;2022-07-06T08:48:40;19.40;99.90
7588;DHT22;3835;48.850;8.938;2022-07-06T08:51:07;19.30;99.90
7588;DHT22;3835;48.850;8.938;2022-07-06T08:53:34;19.40;99.90
7588;DHT22;3835;48.850;8.938;2022-07-06T08:56:02;19.10;99.90
7588;DHT22;3835;48.850;8.938;2022-07-06T08:58:28;19.20;99.90
7588;DHT22;3835;48.850;8.938;2022-07-06T09:00:57;18.90;99.90
7588;DHT22;3835;48.850;8.938;2022-07-06T09:03:24;19.10;99.90
7588;DHT22;3835;48.850;8.938;2022-07-06T09:05:52;19.00;99.90
7588;DHT22;3835;48.850;8.938;2022-07-06T09:08:22;19.00;99.90
7588;DHT22;3835;48.850;8.938;2022-07-06T09:10:52;19.10;99.90
7588;DHT22;3835;48.850;8.938;2022-07-06T09:13:19;19.00;99.90
7588;DHT22;3835;48.850;8.938;2022-07-06T09:15:46;19.20;99.90
7588;DHT22;3835;48.850;8.938;2022-07-06T09:18:14;19.30;99.90
7588;DHT22;3835;48.850;8.938;2022-07-06T09:20:41;19.40;99.90
7588;DHT22;3835;48.850;8.938;2022-07-06T09:23:08;19.60;99.90
7588;DHT22;3835;48.850;8.938;2022-07-06T09:25:35;19.60;99.90
7588;DHT22;3835;48.850;8.938;2022-07-06T09:28:02;20.00;99.90
7588;DHT22;3835;48.850;8.938;2022-07-06T09:30:31;19.60;99.90
7588;DHT22;3835;48.850;8.938;2022-07-06T09:32:58;19.80;99.90
7588;DHT22;3835;48.850;8.938;2022-07-06T09:35:28;19.80;99.90
7588;DHT22;3835;48.850;8.938;2022-07-06T09:38:03;19.70;99.90
7588;DHT22;3835;48.850;8.938;2022-07-06T09:40:32;19.70;99.90
7588;DHT22;3835;48.850;8.938;2022-07-06T09:43:13;19.70;99.90
7588;DHT22;3835;48.850;8.938;2022-07-06T09:45:41;19.50;99.90
7588;DHT22;3835;48.850;8.938;2022-07-06T09:48:10;19.30;99.90
7588;DHT22;3835;48.850;8.938;2022-07-06T09:50:45;19.80;99.90
7588;DHT22;3835;48.850;8.938;2022-07-06T09:53:13;19.80;99.90
7588;DHT22;3835;48.850;8.938;2022-07-06T09:55:43;19.80;99.90
7588;DHT22;3835;48.850;8.938;2022-07-06T09:58:10;20.20;99.90
7588;DHT22;3835;48.850;8.938;2022-07-06T10:00:37;20.00;99.90
7588;DHT22;3835;48.850;8.938;2022-07-06T10:03:06;20.10;99.90
7588;DHT22;3835;48.850;8.938;2022-07-06T10:05:36;20.20;99.90
7588;DHT22;3835;48.850;8.938;2022-07-06T10:08:06;19.50;99.90
7588;DHT22;3835;48.850;8.938;2022-07-06T10:10:35;19.80;99.90
7588;DHT22;3835;48.850;8.938;2022-07-06T10:13:03;19.60;99.90
7588;DHT22;3835;48.850;8.938;2022-07-06T10:15:32;19.40;99.90
7588;DHT22;3835;48.850;8.938;2022-07-06T10:18:00;19.80;99.90
7588;DHT22;3835;48.850;8.938;2022-07-06T10:20:28;20.20;99.90
7588;DHT22;3835;48.850;8.938;2022-07-06T10:22:59;19.80;99.90
7588;DHT22;3835;48.850;8.938;2022-07-06T10:25:28;19.90;99.90
7588;DHT22;3835;48.850;8.938;2022-07-06T10:27:56;20.20;99.90
7588;DHT22;3835;48.850;8.938;2022-07-06T10:30:24;20.20;99.90
7588;DHT22;3835;48.850;8.938;2022-07-06T10:32:51;20.60;99.90
7588;DHT22;3835;48.850;8.938;2022-07-06T10:35:19;20.60;99.90
7588;DHT22;3835;48.850;8.938;2022-07-06T10:38:03;19.80;99.90
7588;DHT22;3835;48.850;8.938;2022-07-06T10:40:33;19.80;99.90
7588;DHT22;3835;48.850;8.938;2022-07-06T10:43:18;20.00;99.90
7588;DHT22;3835;48.850;8.938;2022-07-06T10:45:52;20.40;99.90
7588;DHT22;3835;48.850;8.938;2022-07-06T10:48:22;20.50;99.90
7588;DHT22;3835;48.850;8.938;2022-07-06T10:50:51;20.50;99.90
7588;DHT22;3835;48.850;8.938;2022-07-06T10:53:22;19.90;99.90
7588;DHT22;3835;48.850;8.938;2022-07-06T10:55:51;20.00;99.90
7588;DHT22;3835;48.850;8.938;2022-07-06T10:58:46;20.40;99.90
7588;DHT22;3835;48.850;8.938;2022-07-06T11:01:15;20.90;99.90
7588;DHT22;3835;48.850;8.938;2022-07-06T11:03:43;20.30;99.90
7588;DHT22;3835;48.850;8.938;2022-07-06T11:06:13;20.00;99.90
7588;DHT22;3835;48.850;8.938;2022-07-06T11:08:49;20.20;99.90
7588;DHT22;3835;48.850;8.938;2022-07-06T11:11:19;20.40;99.90
7588;DHT22;3835;48.850;8.938;2022-07-06T11:13:54;20.60;99.90
7588;DHT22;3835;48.850;8.938;2022-07-06T11:16:23;20.50;99.90
7588;DHT22;3835;48.850;8.938;2022-07-06T11:19:00;20.40;99.90
7588;DHT22;3835;48.850;8.938;2022-07-06T11:21:49;20.60;99.90
7588;DHT22;3835;48.850;8.938;2022-07-06T11:24:19;20.50;99.90
7588;DHT22;3835;48.850;8.938;2022-07-06T11:26:50;20.50;99.90
7588;DHT22;3835;48.850;8.938;2022-07-06T11:29:18;20.70;99.90
7588;DHT22;3835;48.850;8.938;2022-07-06T11:31:47;20.90;99.90
7588;DHT22;3835;48.850;8.938;2022-07-06T11:34:18;21.10;99.90
7588;DHT22;3835;48.850;8.938;2022-07-06T11:36:45;21.20;99.90
7588;DHT22;3835;48.850;8.938;2022-07-06T11:39:13;21.30;99.90
7588;DHT22;3835;48.850;8.938;2022-07-06T11:41:40;21.10;99.90
7588;DHT22;3835;48.850;8.938;2022-07-06T11:44:09;20.80;99.90
7588;DHT22;3835;48.850;8.938;2022-07-06T11:46:36;20.60;99.90
7588;DHT22;3835;48.850;8.938;2022-07-06T11:49:05;21.10;99.90
7588;DHT22;3835;48.850;8.938;2022-07-06T11:51:33;21.20;99.90
7588;DHT22;3835;48.850;8.938;2022-07-06T11:54:02;20.90;99.90
7588;DHT22;3835;48.850;8.938;2022-07-06T11:56:34;20.70;99.90
7588;DHT22;3835;48.850;8.938;2022-07-06T11:59:01;21.00;99.90
7588;DHT22;3835;48.850;8.938;2022-07-06T12:01:30;20.90;99.90
7588;DHT22;3835;48.850;8.938;2022-07-06T12:03:58;20.50;99.90
7588;DHT22;3835;48.850;8.938;2022-07-06T12:06:26;20.70;99.90
7588;DHT22;3835;48.850;8.938;2022-07-06T12:08:54;20.70;99.90
7588;DHT22;3835;48.850;8.938;2022-07-06T12:11:23;20.80;99.90
7588;DHT22;3835;48.850;8.938;2022-07-06T12:13:51;21.00;99.90
7588;DHT22;3835;48.850;8.938;2022-07-06T12:16:19;21.00;99.90
7588;DHT22;3835;48.850;8.938;2022-07-06T12:18:48;21.20;99.90
7588;DHT22;3835;48.850;8.938;2022-07-06T12:21:17;20.90;99.90
7588;DHT22;3835;48.850;8.938;2022-07-06T12:23:45;20.80;99.50
7588;DHT22;3835;48.850;8.938;2022-07-06T12:26:13;20.90;99.90
7588;DHT22;3835;48.850;8.938;2022-07-06T12:28:41;21.40;99.90
7588;DHT22;3835;48.850;8.938;2022-07-06T12:31:10;21.50;99.10
7588;DHT22;3835;48.850;8.938;2022-07-06T12:33:37;21.80;97.70
7588;DHT22;3835;48.850;8.938;2022-07-06T12:36:14;21.30;98.80
7588;DHT22;3835;48.850;8.938;2022-07-06T12:38:45;21.00;99.90
7588;DHT22;3835;48.850;8.938;2022-07-06T12:41:28;20.30;99.20
7588;DHT22;3835;48.850;8.938;2022-07-06T12:44:06;20.00;99.50
7588;DHT22;3835;48.850;8.938;2022-07-06T12:46:35;20.00;99.90
7588;DHT22;3835;48.850;8.938;2022-07-06T12:49:10;20.00;99.90
7588;DHT22;3835;48.850;8.938;2022-07-06T12:51:55;20.30;99.80
7588;DHT22;3835;48.850;8.938;2022-07-06T12:54:23;20.30;99.90
7588;DHT22;3835;48.850;8.938;2022-07-06T12:57:08;20.30;98.90
7588;DHT22;3835;48.850;8.938;2022-07-06T12:59:40;20.70;98.80
7588;DHT22;3835;48.850;8.938;2022-07-06T13:02:08;21.20;99.90
7588;DHT22;3835;48.850;8.938;2022-07-06T13:04:36;21.70;99.10
7588;DHT22;3835;48.850;8.938;2022-07-06T13:07:06;22.00;98.50
7588;DHT22;3835;48.850;8.938;2022-07-06T13:09:43;22.30;97.60
7588;DHT22;3835;48.850;8.938;2022-07-06T13:12:10;22.40;98.20
7588;DHT22;3835;48.850;8.938;2022-07-06T13:14:37;22.10;97.00
7588;DHT22;3835;48.850;8.938;2022-07-06T13:17:04;22.30;97.50
7588;DHT22;3835;48.850;8.938;2022-07-06T13:19:31;22.50;96.90
7588;DHT22;3835;48.850;8.938;2022-07-06T13:21:58;22.70;96.80
7588;DHT22;3835;48.850;8.938;2022-07-06T13:24:26;23.10;97.10
7588;DHT22;3835;48.850;8.938;2022-07-06T13:26:53;23.20;95.90
7588;DHT22;3835;48.850;8.938;2022-07-06T13:29:20;22.00;96.00
7588;DHT22;3835;48.850;8.938;2022-07-06T13:31:47;21.50;96.60
7588;DHT22;3835;48.850;8.938;2022-07-06T13:34:14;21.30;96.30
7588;DHT22;3835;48.850;8.938;2022-07-06T13:36:41;21.40;97.00
7588;DHT22;3835;48.850;8.938;2022-07-06T13:39:08;21.50;98.00
7588;DHT22;3835;48.850;8.938;2022-07-06T13:41:37;21.50;96.40
7588;DHT22;3835;48.850;8.938;2022-07-06T13:44:04;21.40;96.70
7588;DHT22;3835;48.850;8.938;2022-07-06T13:46:33;21.60;97.00
7588;DHT22;3835;48.850;8.938;2022-07-06T13:48:59;22.00;96.70
7588;DHT22;3835;48.850;8.938;2022-07-06T13:51:26;21.70;96.00
7588;DHT22;3835;48.850;8.938;2022-07-06T13:53:54;21.40;97.10
7588;DHT22;3835;48.850;8.938;2022-07-06T13:56:21;21.20;96.50
7588;DHT22;3835;48.850;8.938;2022-07-06T13:58:49;20.70;96.60
7588;DHT22;3835;48.850;8.938;2022-07-06T14:01:16;20.80;97.50
7588;DHT22;3835;48.850;8.938;2022-07-06T14:03:43;21.30;97.10
7588;DHT22;3835;48.850;8.938;2022-07-06T14:06:10;21.50;96.30
7588;DHT22;3835;48.850;8.938;2022-07-06T14:08:38;21.70;96.30
7588;DHT22;3835;48.850;8.938;2022-07-06T14:11:06;21.90;96.80
7588;DHT22;3835;48.850;8.938;2022-07-06T14:13:34;22.20;96.70
7588;DHT22;3835;48.850;8.938;2022-07-06T14:16:03;21.80;95.20
7588;DHT22;3835;48.850;8.938;2022-07-06T14:18:30;21.60;96.10
7588;DHT22;3835;48.850;8.938;2022-07-06T14:20:57;21.60;96.20
7588;DHT22;3835;48.850;8.938;2022-07-06T14:23:25;21.90;96.40
7588;DHT22;3835;48.850;8.938;2022-07-06T14:25:55;22.20;96.50
7588;DHT22;3835;48.850;8.938;2022-07-06T14:28:22;22.40;95.30
7588;DHT22;3835;48.850;8.938;2022-07-06T14:30:49;22.40;95.10
7588;DHT22;3835;48.850;8.938;2022-07-06T14:33:17;22.50;94.80
7588;DHT22;3835;48.850;8.938;2022-07-06T14:35:45;22.50;94.40
7588;DHT22;3835;48.850;8.938;2022-07-06T14:38:13;22.10;94.60
7588;DHT22;3835;48.850;8.938;2022-07-06T14:40:41;21.90;94.00
7588;DHT22;3835;48.850;8.938;2022-07-06T14:43:08;22.10;94.50
7588;DHT22;3835;48.850;8.938;2022-07-06T14:45:35;22.20;94.00
7588;DHT22;3835;48.850;8.938;2022-07-06T14:48:03;22.20;94.20
7588;DHT22;3835;48.850;8.938;2022-07-06T14:50:32;21.80;94.50
7588;DHT22;3835;48.850;8.938;2022-07-06T14:53:00;21.60;94.50
7588;DHT22;3835;48.850;8.938;2022-07-06T14:55:27;21.90;95.20
7588;DHT22;3835;48.850;8.938;2022-07-06T14:57:54;22.50;94.10
7588;DHT22;3835;48.850;8.938;2022-07-06T15:00:21;22.80;94.00
7588;DHT22;3835;48.850;8.938;2022-07-06T15:02:48;22.70;93.50
7588;DHT22;3835;48.850;8.938;2022-07-06T15:05:14;22.70;93.40
7588;DHT22;3835;48.850;8.938;2022-07-06T15:07:43;22.00;93.10
7588;DHT22;3835;48.850;8.938;2022-07-06T15:10:10;22.40;93.70
7588;DHT22;3835;48.850;8.938;2022-07-06T15:12:37;22.70;93.60
7588;DHT22;3835;48.850;8.938;2022-07-06T15:15:04;22.70;94.00
7588;DHT22;3835;48.850;8.938;2022-07-06T15:17:31;22.00;92.50
7588;DHT22;3835;48.850;8.938;2022-07-06T15:19:59;21.70;93.50
7588;DHT22;3835;48.850;8.938;2022-07-06T15:22:26;21.70;92.90
7588;DHT22;3835;48.850;8.938;2022-07-06T15:24:54;21.60;93.50
7588;DHT22;3835;48.850;8.938;2022-07-06T15:27:21;21.90;92.70
7588;DHT22;3835;48.850;8.938;2022-07-06T15:29:48;22.20;93.00
7588;DHT22;3835;48.850;8.938;2022-07-06T15:32:15;22.50;92.20
7588;DHT22;3835;48.850;8.938;2022-07-06T15:34:42;22.30;91.80
7588;DHT22;3835;48.850;8.938;2022-07-06T15:37:08;22.20;92.70
7588;DHT22;3835;48.850;8.938;2022-07-06T15:39:35;22.10;92.60
7588;DHT22;3835;48.850;8.938;2022-07-06T15:42:04;22.10;91.80
7588;DHT22;3835;48.850;8.938;2022-07-06T15:44:32;22.10;91.90
7588;DHT22;3835;48.850;8.938;2022-07-06T15:47:03;22.00;92.00
7588;DHT22;3835;48.850;8.938;2022-07-06T15:49:31;21.80;92.30
7588;DHT22;3835;48.850;8.938;2022-07-06T15:51:58;22.00;93.10
7588;DHT22;3835;48.850;8.938;2022-07-06T15:54:25;22.00;92.30
7588;DHT22;3835;48.850;8.938;2022-07-06T15:56:51;22.10;92.00
7588;DHT22;3835;48.850;8.938;2022-07-06T15:59:20;22.30;92.10
7588;DHT22;3835;48.850;8.938;2022-07-06T16:01:46;22.00;91.70
7588;DHT22;3835;48.850;8.938;2022-07-06T16:04:14;21.80;91.40
7588;DHT22;3835;48.850;8.938;2022-07-06T16:06:41;21.70;91.60
7588;DHT22;3835;48.850;8.938;2022-07-06T16:09:08;22.10;91.50
7588;DHT22;3835;48.850;8.938;2022-07-06T16:11:34;21.70;90.90
7588;DHT22;3835;48.850;8.938;2022-07-06T16:14:01;22.00;92.10
7588;DHT22;3835;48.850;8.938;2022-07-06T16:16:29;22.00;91.10